| time (UTC) | temp F | wind direction | speed MPH | gust MPH | rain 1hr in | rain 24hr in | rain mn in | humidity % | barometer mb |
| 20260503233425 | 73 | 335 | 5.0 | 12.0 | 0.00 | 0.00 | 0.00 | 47 | 1010.6 |
| 20260503232925 | 73 | 339 | 3.0 | 12.0 | 0.00 | 0.00 | 0.00 | 48 | 1010.9 |
| 20260503231926 | 73 | 333 | 6.0 | 13.0 | 0.00 | 0.00 | 0.00 | 47 | 1010.9 |
| 20260503230425 | 73 | 335 | 4.0 | 13.0 | 0.00 | 0.00 | 0.00 | 47 | 1010.9 |
| 20260503225925 | 73 | 340 | 6.0 | 11.0 | 0.00 | 0.00 | 0.00 | 47 | 1011.3 |
| 20260503225425 | 73 | 328 | 6.0 | 13.0 | 0.00 | 0.00 | 0.00 | 46 | 1011.3 |
| 20260503221425 | 73 | 328 | 5.0 | 15.0 | 0.00 | 0.00 | 0.00 | 44 | 1011.8 |
| 20260503204925 | 71 | 316 | 4.0 | 12.0 | 0.00 | 0.00 | 0.00 | 48 | 1012.4 |
| 20260503203424 | 70 | 318 | 5.0 | 11.0 | 0.00 | 0.00 | 0.00 | 49 | 1012.6 |
| 20260503202925 | 70 | 328 | 5.0 | 12.0 | 0.00 | 0.00 | 0.00 | 50 | 1012.8 |
| 20260503201925 | 70 | 329 | 7.0 | 13.0 | 0.00 | 0.00 | 0.00 | 49 | 1012.8 |
| 20260503200925 | 70 | 321 | 5.0 | 11.0 | 0.00 | 0.00 | 0.00 | 49 | 1012.9 |
| 20260503195925 | 71 | 313 | 4.0 | 12.0 | 0.00 | 0.00 | 0.00 | 51 | 1013.1 |
| 20260503195424 | 70 | 322 | 3.0 | 10.0 | 0.00 | 0.00 | 0.00 | 52 | 1013.1 |
| 20260503193924 | 71 | 356 | 5.0 | 13.0 | 0.00 | 0.00 | 0.00 | 53 | 1013.2 |
| 20260503191424 | 70 | 21 | 3.0 | 12.0 | 0.00 | 0.00 | 0.00 | 54 | 1013.5 |
| 20260503190425 | 69 | 330 | 5.0 | 11.0 | 0.00 | 0.00 | 0.00 | 58 | 1013.5 |
| 20260503184925 | 67 | 338 | 4.0 | 10.0 | 0.00 | 0.00 | 0.00 | 62 | 1013.7 |
| 20260503183925 | 66 | 352 | 5.0 | 12.0 | 0.00 | 0.00 | 0.00 | 63 | 1013.9 |
| 20260503182925 | 66 | 345 | 6.0 | 15.0 | 0.00 | 0.00 | 0.00 | 63 | 1013.9 |
| 20260503182424 | 66 | 335 | 4.0 | 14.0 | 0.00 | 0.00 | 0.00 | 64 | 1013.9 |
| 20260503173925 | 64 | 345 | 4.0 | 10.0 | 0.00 | 0.00 | 0.00 | 66 | 1014.1 |
| 20260503172924 | 63 | 327 | 4.0 | 14.0 | 0.00 | 0.00 | 0.00 | 67 | 1014.0 |
| 20260503171424 | 63 | 338 | 5.0 | 12.0 | 0.00 | 0.00 | 0.00 | 68 | 1014.2 |
| 20260503170924 | 62 | 344 | 3.0 | 15.0 | 0.00 | 0.00 | 0.00 | 69 | 1014.2 |
| 20260503150925 | 60 | 334 | 3.0 | 10.0 | 0.00 | 0.00 | 0.00 | 71 | 1014.5 |
| 20260503130925 | 58 | 17 | 1.0 | 5.0 | 0.00 | 0.00 | 0.00 | 70 | 1013.9 |
| 20260503080924 | 61 | 0 | 0.0 | 2.0 | 0.00 | 0.00 | 0.00 | 59 | 1014.4 |
| 20260503072924 | 62 | 0 | 0.0 | 2.0 | 0.00 | 0.00 | 0.00 | 56 | 1014.3 |
| 20260503071924 | 62 | 0 | 0.0 | 1.0 | 0.00 | 0.00 | 0.00 | 56 | 1014.3 |
| 20260503070924 | 62 | 0 | 0.0 | 1.0 | 0.00 | 0.00 | 0.00 | 56 | 1014.4 |
| 20260503070424 | 62 | 0 | 0.0 | 1.0 | 0.00 | 0.00 | 0.00 | 56 | 1014.4 |
| 20260503054424 | 64 | 84 | 2.0 | 3.0 | 0.00 | 0.00 | 0.00 | 55 | 1014.2 |
| 20260503053540 | 64 | 66 | 1.0 | 3.0 | 0.00 | 0.00 | 0.00 | 55 | 1014.2 |
| 20260503053424 | 64 | 66 | 1.0 | 3.0 | 0.00 | 0.00 | 0.00 | 55 | 1014.2 |
| 20260503052924 | 64 | 0 | 0.0 | 2.0 | 0.00 | 0.00 | 0.00 | 55 | 1014.2 |
| 20260503051959 | 64 | 62 | 1.0 | 3.0 | 0.00 | 0.00 | 0.00 | 55 | 1014.2 |
| 20260503051924 | 64 | 62 | 1.0 | 3.0 | 0.00 | 0.00 | 0.00 | 55 | 1014.2 |
| 20260503044924 | 64 | 0 | 0.0 | 2.0 | 0.00 | 0.00 | 0.00 | 55 | 1014.1 |
| 20260503041925 | 64 | 74 | 1.0 | 3.0 | 0.00 | 0.00 | 0.00 | 56 | 1014.0 |
| 20260503040550 | 64 | 45 | 3.0 | 6.0 | 0.00 | 0.00 | 0.00 | 56 | 1013.7 |
| 20260503040424 | 64 | 45 | 3.0 | 6.0 | 0.00 | 0.00 | 0.00 | 56 | 1013.7 |
| 20260503035925 | 64 | 0 | 0.0 | 3.0 | 0.00 | 0.00 | 0.00 | 57 | 1013.6 |
| 20260503034924 | 64 | 9 | 2.0 | 7.0 | 0.00 | 0.00 | 0.00 | 58 | 1013.6 |
| 20260503033924 | 63 | 33 | 3.0 | 7.0 | 0.00 | 0.00 | 0.00 | 60 | 1013.4 |
| 20260503032924 | 63 | 359 | 2.0 | 5.0 | 0.00 | 0.00 | 0.00 | 61 | 1013.2 |
| 20260503025924 | 64 | 355 | 3.0 | 10.0 | 0.00 | 0.00 | 0.00 | 61 | 1013.1 |
| 20260503025424 | 64 | 351 | 4.0 | 11.0 | 0.00 | 0.00 | 0.00 | 61 | 1013.1 |
| 20260503024924 | 64 | 346 | 2.0 | 11.0 | 0.00 | 0.00 | 0.00 | 61 | 1013.1 |
| 20260503022924 | 64 | 335 | 5.0 | 11.0 | 0.00 | 0.00 | 0.00 | 61 | 1013.1 |
| 20260503021424 | 65 | 339 | 5.0 | 9.0 | 0.00 | 0.00 | 0.00 | 60 | 1013.1 |
| 20260503015924 | 65 | 318 | 4.0 | 10.0 | 0.00 | 0.00 | 0.00 | 60 | 1013.2 |
| 20260503013924 | 66 | 324 | 4.0 | 9.0 | 0.00 | 0.00 | 0.00 | 58 | 1013.3 |
| 20260503012924 | 67 | 356 | 6.0 | 13.0 | 0.00 | 0.00 | 0.00 | 56 | 1013.3 |
| 20260503011924 | 66 | 14 | 6.0 | 13.0 | 0.00 | 0.00 | 0.00 | 55 | 1013.3 |
| 20260503010924 | 66 | 313 | 2.0 | 12.0 | 0.00 | 0.00 | 0.00 | 55 | 1013.3 |
| 20260503002924 | 67 | 338 | 5.0 | 14.0 | 0.00 | 0.00 | 0.00 | 54 | 1013.6 |
| 20260503001924 | 67 | 343 | 5.0 | 13.0 | 0.00 | 0.00 | 0.00 | 54 | 1013.6 |
| 20260502235923 | 67 | 354 | 10.0 | 16.0 | 0.00 | 0.00 | 0.00 | 54 | 1013.8 |
| 20260502235424 | 67 | 2 | 5.0 | 13.0 | 0.00 | 0.00 | 0.00 | 55 | 1013.8 |
| 20260502234924 | 67 | 342 | 5.0 | 13.0 | 0.00 | 0.00 | 0.00 | 57 | 1013.8 |